sensor_id;sensor_type;location;lat;lon;timestamp;P1;durP1;ratioP1;P2;durP2;ratioP2
57297;SDS011;43147;50.972;18.210;2023-05-07T00:02:24;14.20;;;6.40;;
57297;SDS011;43147;50.972;18.210;2023-05-07T00:04:50;18.00;;;11.70;;
57297;SDS011;43147;50.972;18.210;2023-05-07T00:07:17;4.80;;;4.30;;
57297;SDS011;43147;50.972;18.210;2023-05-07T00:09:43;5.80;;;4.60;;
57297;SDS011;43147;50.972;18.210;2023-05-07T00:12:08;6.20;;;5.10;;
57297;SDS011;43147;50.972;18.210;2023-05-07T00:14:34;4.80;;;4.00;;
57297;SDS011;43147;50.972;18.210;2023-05-07T00:16:59;5.40;;;4.80;;
57297;SDS011;43147;50.972;18.210;2023-05-07T00:19:25;5.50;;;3.50;;
57297;SDS011;43147;50.972;18.210;2023-05-07T00:21:51;7.60;;;5.40;;
57297;SDS011;43147;50.972;18.210;2023-05-07T00:24:18;4.10;;;3.50;;
57297;SDS011;43147;50.972;18.210;2023-05-07T00:26:44;8.40;;;5.40;;
57297;SDS011;43147;50.972;18.210;2023-05-07T00:29:09;16.20;;;8.70;;
57297;SDS011;43147;50.972;18.210;2023-05-07T00:31:35;13.50;;;7.50;;
57297;SDS011;43147;50.972;18.210;2023-05-07T00:34:00;8.00;;;5.60;;
57297;SDS011;43147;50.972;18.210;2023-05-07T00:36:26;6.10;;;5.20;;
57297;SDS011;43147;50.972;18.210;2023-05-07T00:38:53;7.00;;;6.10;;
57297;SDS011;43147;50.972;18.210;2023-05-07T00:41:20;6.60;;;5.50;;
57297;SDS011;43147;50.972;18.210;2023-05-07T00:43:45;7.80;;;4.50;;
57297;SDS011;43147;50.972;18.210;2023-05-07T00:46:11;8.50;;;6.00;;
57297;SDS011;43147;50.972;18.210;2023-05-07T00:48:37;8.90;;;5.00;;
57297;SDS011;43147;50.972;18.210;2023-05-07T00:51:03;8.60;;;6.00;;
57297;SDS011;43147;50.972;18.210;2023-05-07T00:53:28;6.80;;;5.20;;
57297;SDS011;43147;50.972;18.210;2023-05-07T00:55:55;7.80;;;5.50;;
57297;SDS011;43147;50.972;18.210;2023-05-07T00:58:21;9.20;;;5.60;;
57297;SDS011;43147;50.972;18.210;2023-05-07T01:00:48;6.70;;;5.50;;
57297;SDS011;43147;50.972;18.210;2023-05-07T01:03:13;8.00;;;5.30;;
57297;SDS011;43147;50.972;18.210;2023-05-07T01:05:39;7.40;;;5.90;;
57297;SDS011;43147;50.972;18.210;2023-05-07T01:08:06;11.10;;;6.70;;
57297;SDS011;43147;50.972;18.210;2023-05-07T01:10:32;7.60;;;6.00;;
57297;SDS011;43147;50.972;18.210;2023-05-07T01:12:58;10.50;;;4.20;;
57297;SDS011;43147;50.972;18.210;2023-05-07T01:15:25;9.80;;;5.60;;
57297;SDS011;43147;50.972;18.210;2023-05-07T01:17:51;4.90;;;3.50;;
57297;SDS011;43147;50.972;18.210;2023-05-07T01:20:17;6.90;;;5.00;;
57297;SDS011;43147;50.972;18.210;2023-05-07T01:22:44;7.60;;;5.50;;
57297;SDS011;43147;50.972;18.210;2023-05-07T01:25:10;6.90;;;4.50;;
57297;SDS011;43147;50.972;18.210;2023-05-07T01:27:37;5.60;;;4.10;;
57297;SDS011;43147;50.972;18.210;2023-05-07T01:30:06;6.30;;;4.60;;
57297;SDS011;43147;50.972;18.210;2023-05-07T01:32:36;8.20;;;4.10;;
57297;SDS011;43147;50.972;18.210;2023-05-07T01:35:03;4.10;;;3.20;;
57297;SDS011;43147;50.972;18.210;2023-05-07T01:37:31;3.90;;;3.50;;
57297;SDS011;43147;50.972;18.210;2023-05-07T01:39:57;4.80;;;3.50;;
57297;SDS011;43147;50.972;18.210;2023-05-07T01:42:23;8.10;;;4.80;;
57297;SDS011;43147;50.972;18.210;2023-05-07T01:44:49;4.80;;;4.00;;
57297;SDS011;43147;50.972;18.210;2023-05-07T01:47:15;4.50;;;3.70;;
57297;SDS011;43147;50.972;18.210;2023-05-07T01:49:41;6.90;;;4.30;;
57297;SDS011;43147;50.972;18.210;2023-05-07T01:52:07;6.50;;;4.60;;
57297;SDS011;43147;50.972;18.210;2023-05-07T01:54:35;7.40;;;4.90;;
57297;SDS011;43147;50.972;18.210;2023-05-07T01:57:01;6.60;;;5.20;;
57297;SDS011;43147;50.972;18.210;2023-05-07T01:59:29;5.20;;;4.60;;
57297;SDS011;43147;50.972;18.210;2023-05-07T02:01:54;6.10;;;5.00;;
57297;SDS011;43147;50.972;18.210;2023-05-07T02:04:20;4.30;;;3.50;;
57297;SDS011;43147;50.972;18.210;2023-05-07T02:06:46;6.20;;;4.00;;
57297;SDS011;43147;50.972;18.210;2023-05-07T02:09:13;5.50;;;3.60;;
57297;SDS011;43147;50.972;18.210;2023-05-07T02:11:39;9.50;;;4.50;;
57297;SDS011;43147;50.972;18.210;2023-05-07T02:14:05;6.00;;;4.80;;
57297;SDS011;43147;50.972;18.210;2023-05-07T02:16:31;6.50;;;4.80;;
57297;SDS011;43147;50.972;18.210;2023-05-07T02:18:57;5.80;;;4.10;;
57297;SDS011;43147;50.972;18.210;2023-05-07T02:21:24;3.90;;;2.90;;
57297;SDS011;43147;50.972;18.210;2023-05-07T02:23:50;9.50;;;4.50;;
57297;SDS011;43147;50.972;18.210;2023-05-07T02:26:16;5.00;;;3.40;;
57297;SDS011;43147;50.972;18.210;2023-05-07T02:28:41;9.40;;;4.40;;
57297;SDS011;43147;50.972;18.210;2023-05-07T02:31:07;7.20;;;5.40;;
57297;SDS011;43147;50.972;18.210;2023-05-07T02:33:33;7.60;;;5.40;;
57297;SDS011;43147;50.972;18.210;2023-05-07T02:36:07;8.70;;;5.60;;
57297;SDS011;43147;50.972;18.210;2023-05-07T02:38:36;4.60;;;3.60;;
57297;SDS011;43147;50.972;18.210;2023-05-07T02:41:02;5.30;;;3.20;;
57297;SDS011;43147;50.972;18.210;2023-05-07T02:43:28;5.40;;;4.20;;
57297;SDS011;43147;50.972;18.210;2023-05-07T02:46:03;5.40;;;3.70;;
57297;SDS011;43147;50.972;18.210;2023-05-07T02:48:30;5.60;;;3.80;;
57297;SDS011;43147;50.972;18.210;2023-05-07T02:50:56;5.00;;;4.50;;
57297;SDS011;43147;50.972;18.210;2023-05-07T02:53:22;4.80;;;4.00;;
57297;SDS011;43147;50.972;18.210;2023-05-07T02:55:52;3.10;;;2.80;;
57297;SDS011;43147;50.972;18.210;2023-05-07T02:58:27;4.70;;;3.40;;
57297;SDS011;43147;50.972;18.210;2023-05-07T03:00:52;4.50;;;3.80;;
57297;SDS011;43147;50.972;18.210;2023-05-07T03:03:21;6.30;;;3.80;;
57297;SDS011;43147;50.972;18.210;2023-05-07T03:05:46;4.80;;;3.50;;
57297;SDS011;43147;50.972;18.210;2023-05-07T03:08:12;4.10;;;3.60;;
57297;SDS011;43147;50.972;18.210;2023-05-07T03:10:38;4.80;;;3.90;;
57297;SDS011;43147;50.972;18.210;2023-05-07T03:13:04;7.30;;;3.20;;
57297;SDS011;43147;50.972;18.210;2023-05-07T03:15:30;4.80;;;4.00;;
57297;SDS011;43147;50.972;18.210;2023-05-07T03:17:56;3.00;;;2.40;;
57297;SDS011;43147;50.972;18.210;2023-05-07T03:20:21;5.70;;;3.60;;
57297;SDS011;43147;50.972;18.210;2023-05-07T03:22:48;6.30;;;3.80;;
57297;SDS011;43147;50.972;18.210;2023-05-07T03:25:13;2.40;;;2.20;;
57297;SDS011;43147;50.972;18.210;2023-05-07T03:27:40;3.50;;;2.40;;
57297;SDS011;43147;50.972;18.210;2023-05-07T03:30:07;2.70;;;1.90;;
57297;SDS011;43147;50.972;18.210;2023-05-07T03:32:34;3.00;;;2.50;;
57297;SDS011;43147;50.972;18.210;2023-05-07T03:35:00;3.40;;;2.30;;
57297;SDS011;43147;50.972;18.210;2023-05-07T03:37:27;2.60;;;2.20;;
57297;SDS011;43147;50.972;18.210;2023-05-07T03:39:53;2.00;;;1.30;;
57297;SDS011;43147;50.972;18.210;2023-05-07T03:42:19;3.00;;;2.30;;
57297;SDS011;43147;50.972;18.210;2023-05-07T03:44:44;7.70;;;2.30;;
57297;SDS011;43147;50.972;18.210;2023-05-07T03:47:10;3.40;;;2.20;;
57297;SDS011;43147;50.972;18.210;2023-05-07T03:49:36;2.10;;;1.70;;
57297;SDS011;43147;50.972;18.210;2023-05-07T03:52:02;4.90;;;1.80;;
57297;SDS011;43147;50.972;18.210;2023-05-07T03:54:28;3.10;;;2.30;;
57297;SDS011;43147;50.972;18.210;2023-05-07T03:56:54;3.70;;;2.50;;
57297;SDS011;43147;50.972;18.210;2023-05-07T03:59:19;1.90;;;1.70;;
57297;SDS011;43147;50.972;18.210;2023-05-07T04:01:45;2.30;;;2.10;;
57297;SDS011;43147;50.972;18.210;2023-05-07T04:04:11;3.40;;;2.20;;
57297;SDS011;43147;50.972;18.210;2023-05-07T04:06:36;5.90;;;2.70;;
57297;SDS011;43147;50.972;18.210;2023-05-07T04:09:02;5.00;;;2.90;;
57297;SDS011;43147;50.972;18.210;2023-05-07T04:11:29;6.60;;;3.70;;
57297;SDS011;43147;50.972;18.210;2023-05-07T04:13:54;4.40;;;3.40;;
57297;SDS011;43147;50.972;18.210;2023-05-07T04:16:22;4.30;;;3.60;;
57297;SDS011;43147;50.972;18.210;2023-05-07T04:18:50;3.50;;;3.20;;
57297;SDS011;43147;50.972;18.210;2023-05-07T04:21:16;5.70;;;4.20;;
57297;SDS011;43147;50.972;18.210;2023-05-07T04:23:43;4.10;;;3.70;;
57297;SDS011;43147;50.972;18.210;2023-05-07T04:26:09;3.10;;;2.70;;
57297;SDS011;43147;50.972;18.210;2023-05-07T04:28:34;5.50;;;3.60;;
57297;SDS011;43147;50.972;18.210;2023-05-07T04:31:00;4.10;;;2.90;;
57297;SDS011;43147;50.972;18.210;2023-05-07T04:33:26;5.10;;;4.60;;
57297;SDS011;43147;50.972;18.210;2023-05-07T04:35:52;8.30;;;4.90;;
57297;SDS011;43147;50.972;18.210;2023-05-07T04:38:18;7.50;;;4.80;;
57297;SDS011;43147;50.972;18.210;2023-05-07T04:40:43;6.30;;;3.90;;
57297;SDS011;43147;50.972;18.210;2023-05-07T04:43:09;8.40;;;5.20;;
57297;SDS011;43147;50.972;18.210;2023-05-07T04:45:36;6.90;;;5.10;;
57297;SDS011;43147;50.972;18.210;2023-05-07T04:48:01;7.10;;;5.20;;
57297;SDS011;43147;50.972;18.210;2023-05-07T04:50:27;9.10;;;5.90;;
57297;SDS011;43147;50.972;18.210;2023-05-07T04:52:53;5.40;;;4.60;;
57297;SDS011;43147;50.972;18.210;2023-05-07T04:55:19;7.20;;;3.10;;
57297;SDS011;43147;50.972;18.210;2023-05-07T04:57:45;5.90;;;4.40;;
57297;SDS011;43147;50.972;18.210;2023-05-07T05:00:11;5.60;;;3.90;;
57297;SDS011;43147;50.972;18.210;2023-05-07T05:02:40;4.60;;;3.50;;
57297;SDS011;43147;50.972;18.210;2023-05-07T05:05:06;5.00;;;3.30;;
57297;SDS011;43147;50.972;18.210;2023-05-07T05:07:32;4.90;;;3.20;;
57297;SDS011;43147;50.972;18.210;2023-05-07T05:09:59;7.40;;;3.60;;
57297;SDS011;43147;50.972;18.210;2023-05-07T05:12:28;5.50;;;3.90;;
57297;SDS011;43147;50.972;18.210;2023-05-07T05:14:55;6.90;;;3.80;;
57297;SDS011;43147;50.972;18.210;2023-05-07T05:17:20;4.50;;;4.10;;
57297;SDS011;43147;50.972;18.210;2023-05-07T05:19:47;4.70;;;3.90;;
57297;SDS011;43147;50.972;18.210;2023-05-07T05:22:13;3.70;;;3.30;;
57297;SDS011;43147;50.972;18.210;2023-05-07T05:24:38;4.70;;;3.00;;
57297;SDS011;43147;50.972;18.210;2023-05-07T05:27:04;6.70;;;4.40;;
57297;SDS011;43147;50.972;18.210;2023-05-07T05:29:30;7.30;;;4.60;;
57297;SDS011;43147;50.972;18.210;2023-05-07T05:31:57;10.00;;;6.70;;
57297;SDS011;43147;50.972;18.210;2023-05-07T05:34:23;6.90;;;5.80;;
57297;SDS011;43147;50.972;18.210;2023-05-07T05:36:49;5.20;;;4.70;;
57297;SDS011;43147;50.972;18.210;2023-05-07T05:39:14;5.60;;;4.00;;
57297;SDS011;43147;50.972;18.210;2023-05-07T05:41:41;7.70;;;4.60;;
57297;SDS011;43147;50.972;18.210;2023-05-07T05:44:07;4.40;;;4.00;;
57297;SDS011;43147;50.972;18.210;2023-05-07T05:46:35;4.20;;;3.80;;
57297;SDS011;43147;50.972;18.210;2023-05-07T05:49:01;4.70;;;2.80;;
57297;SDS011;43147;50.972;18.210;2023-05-07T05:51:26;3.50;;;3.10;;
57297;SDS011;43147;50.972;18.210;2023-05-07T05:53:52;3.30;;;2.20;;
57297;SDS011;43147;50.972;18.210;2023-05-07T05:56:18;4.10;;;2.90;;
57297;SDS011;43147;50.972;18.210;2023-05-07T05:58:44;3.20;;;2.30;;
57297;SDS011;43147;50.972;18.210;2023-05-07T06:01:10;3.40;;;1.90;;
57297;SDS011;43147;50.972;18.210;2023-05-07T06:03:37;4.10;;;2.70;;
57297;SDS011;43147;50.972;18.210;2023-05-07T06:06:02;2.50;;;2.10;;
57297;SDS011;43147;50.972;18.210;2023-05-07T06:08:31;4.90;;;3.50;;
57297;SDS011;43147;50.972;18.210;2023-05-07T06:10:57;3.10;;;2.60;;
57297;SDS011;43147;50.972;18.210;2023-05-07T06:13:23;3.60;;;3.00;;
57297;SDS011;43147;50.972;18.210;2023-05-07T06:15:49;2.80;;;1.80;;
57297;SDS011;43147;50.972;18.210;2023-05-07T06:18:15;2.40;;;2.10;;
57297;SDS011;43147;50.972;18.210;2023-05-07T06:20:40;3.00;;;2.60;;
57297;SDS011;43147;50.972;18.210;2023-05-07T06:23:06;4.00;;;3.60;;
57297;SDS011;43147;50.972;18.210;2023-05-07T06:25:32;2.70;;;2.40;;
57297;SDS011;43147;50.972;18.210;2023-05-07T06:27:58;3.60;;;3.20;;
57297;SDS011;43147;50.972;18.210;2023-05-07T06:30:24;4.50;;;3.70;;
57297;SDS011;43147;50.972;18.210;2023-05-07T06:32:49;4.70;;;4.20;;
57297;SDS011;43147;50.972;18.210;2023-05-07T06:35:15;4.80;;;4.30;;
57297;SDS011;43147;50.972;18.210;2023-05-07T06:37:41;6.00;;;3.80;;
57297;SDS011;43147;50.972;18.210;2023-05-07T06:40:08;5.70;;;4.80;;
57297;SDS011;43147;50.972;18.210;2023-05-07T06:42:35;5.70;;;4.50;;
57297;SDS011;43147;50.972;18.210;2023-05-07T06:45:01;3.40;;;2.80;;
57297;SDS011;43147;50.972;18.210;2023-05-07T06:47:29;5.40;;;3.90;;
57297;SDS011;43147;50.972;18.210;2023-05-07T06:49:55;5.40;;;4.60;;
57297;SDS011;43147;50.972;18.210;2023-05-07T06:52:21;4.50;;;3.60;;
57297;SDS011;43147;50.972;18.210;2023-05-07T06:54:46;6.70;;;4.70;;
57297;SDS011;43147;50.972;18.210;2023-05-07T06:57:12;6.90;;;4.90;;
57297;SDS011;43147;50.972;18.210;2023-05-07T06:59:38;5.90;;;4.50;;
57297;SDS011;43147;50.972;18.210;2023-05-07T07:02:03;5.20;;;4.60;;
57297;SDS011;43147;50.972;18.210;2023-05-07T07:04:29;5.40;;;4.50;;
57297;SDS011;43147;50.972;18.210;2023-05-07T07:06:55;5.60;;;5.10;;
57297;SDS011;43147;50.972;18.210;2023-05-07T07:09:22;7.00;;;5.50;;
57297;SDS011;43147;50.972;18.210;2023-05-07T07:11:48;6.60;;;4.90;;
57297;SDS011;43147;50.972;18.210;2023-05-07T07:14:13;6.80;;;4.70;;
57297;SDS011;43147;50.972;18.210;2023-05-07T07:16:39;6.00;;;5.30;;
57297;SDS011;43147;50.972;18.210;2023-05-07T07:19:06;5.30;;;4.80;;
57297;SDS011;43147;50.972;18.210;2023-05-07T07:21:32;5.10;;;4.60;;
57297;SDS011;43147;50.972;18.210;2023-05-07T07:23:58;10.70;;;7.00;;
57297;SDS011;43147;50.972;18.210;2023-05-07T07:26:23;8.20;;;5.40;;
57297;SDS011;43147;50.972;18.210;2023-05-07T07:28:50;8.70;;;6.40;;
57297;SDS011;43147;50.972;18.210;2023-05-07T07:31:15;4.20;;;3.50;;
57297;SDS011;43147;50.972;18.210;2023-05-07T07:33:41;5.40;;;4.70;;
57297;SDS011;43147;50.972;18.210;2023-05-07T07:36:07;6.00;;;4.40;;
57297;SDS011;43147;50.972;18.210;2023-05-07T07:38:33;8.00;;;7.20;;
57297;SDS011;43147;50.972;18.210;2023-05-07T07:41:00;6.40;;;5.70;;
57297;SDS011;43147;50.972;18.210;2023-05-07T07:43:26;6.50;;;5.90;;
57297;SDS011;43147;50.972;18.210;2023-05-07T07:45:53;5.70;;;5.20;;
57297;SDS011;43147;50.972;18.210;2023-05-07T07:48:18;7.20;;;6.50;;
57297;SDS011;43147;50.972;18.210;2023-05-07T07:50:44;8.50;;;5.30;;
57297;SDS011;43147;50.972;18.210;2023-05-07T07:53:10;8.30;;;6.40;;
57297;SDS011;43147;50.972;18.210;2023-05-07T07:55:38;9.70;;;7.40;;
57297;SDS011;43147;50.972;18.210;2023-05-07T07:58:05;13.30;;;10.50;;
57297;SDS011;43147;50.972;18.210;2023-05-07T08:00:31;9.90;;;8.70;;
57297;SDS011;43147;50.972;18.210;2023-05-07T08:02:58;15.50;;;9.90;;
57297;SDS011;43147;50.972;18.210;2023-05-07T08:05:24;10.00;;;9.10;;
57297;SDS011;43147;50.972;18.210;2023-05-07T08:07:50;9.40;;;8.20;;
57297;SDS011;43147;50.972;18.210;2023-05-07T08:10:17;9.80;;;7.50;;
57297;SDS011;43147;50.972;18.210;2023-05-07T08:12:47;8.90;;;7.40;;
57297;SDS011;43147;50.972;18.210;2023-05-07T08:15:16;7.10;;;6.30;;
57297;SDS011;43147;50.972;18.210;2023-05-07T08:17:42;15.00;;;11.30;;
57297;SDS011;43147;50.972;18.210;2023-05-07T08:20:08;32.80;;;16.40;;
57297;SDS011;43147;50.972;18.210;2023-05-07T08:22:34;26.00;;;15.40;;
57297;SDS011;43147;50.972;18.210;2023-05-07T08:25:01;59.90;;;19.60;;
57297;SDS011;43147;50.972;18.210;2023-05-07T08:27:28;41.50;;;14.20;;
57297;SDS011;43147;50.972;18.210;2023-05-07T08:29:54;46.60;;;19.60;;
57297;SDS011;43147;50.972;18.210;2023-05-07T08:32:20;17.40;;;10.50;;
57297;SDS011;43147;50.972;18.210;2023-05-07T08:34:47;8.90;;;6.90;;
57297;SDS011;43147;50.972;18.210;2023-05-07T08:37:13;9.20;;;5.60;;
57297;SDS011;43147;50.972;18.210;2023-05-07T08:39:38;25.40;;;12.70;;
57297;SDS011;43147;50.972;18.210;2023-05-07T08:42:04;18.80;;;10.70;;
57297;SDS011;43147;50.972;18.210;2023-05-07T08:44:33;18.00;;;11.10;;
57297;SDS011;43147;50.972;18.210;2023-05-07T08:47:02;7.50;;;6.70;;
57297;SDS011;43147;50.972;18.210;2023-05-07T08:49:28;9.60;;;7.80;;
57297;SDS011;43147;50.972;18.210;2023-05-07T08:51:54;9.90;;;6.90;;
57297;SDS011;43147;50.972;18.210;2023-05-07T08:54:21;11.40;;;6.60;;
57297;SDS011;43147;50.972;18.210;2023-05-07T08:56:47;5.00;;;4.50;;
57297;SDS011;43147;50.972;18.210;2023-05-07T08:59:13;12.50;;;7.90;;
57297;SDS011;43147;50.972;18.210;2023-05-07T09:01:39;11.80;;;7.70;;
57297;SDS011;43147;50.972;18.210;2023-05-07T09:04:05;15.50;;;9.40;;
57297;SDS011;43147;50.972;18.210;2023-05-07T09:06:32;20.60;;;12.60;;
57297;SDS011;43147;50.972;18.210;2023-05-07T09:08:59;11.60;;;8.40;;
57297;SDS011;43147;50.972;18.210;2023-05-07T09:11:26;8.50;;;6.40;;
57297;SDS011;43147;50.972;18.210;2023-05-07T09:13:55;11.20;;;7.30;;
57297;SDS011;43147;50.972;18.210;2023-05-07T09:16:23;5.90;;;5.30;;
57297;SDS011;43147;50.972;18.210;2023-05-07T09:18:53;5.10;;;4.60;;
57297;SDS011;43147;50.972;18.210;2023-05-07T09:21:20;7.80;;;4.80;;
57297;SDS011;43147;50.972;18.210;2023-05-07T09:23:53;6.30;;;5.70;;
57297;SDS011;43147;50.972;18.210;2023-05-07T09:26:23;6.30;;;5.70;;
57297;SDS011;43147;50.972;18.210;2023-05-07T09:28:49;7.70;;;4.70;;
57297;SDS011;43147;50.972;18.210;2023-05-07T09:31:15;6.20;;;5.40;;
57297;SDS011;43147;50.972;18.210;2023-05-07T09:33:40;9.10;;;4.70;;
57297;SDS011;43147;50.972;18.210;2023-05-07T09:36:07;5.00;;;4.50;;
57297;SDS011;43147;50.972;18.210;2023-05-07T09:38:34;3.30;;;2.70;;
57297;SDS011;43147;50.972;18.210;2023-05-07T09:41:01;3.70;;;3.40;;
57297;SDS011;43147;50.972;18.210;2023-05-07T09:43:31;5.30;;;3.70;;
57297;SDS011;43147;50.972;18.210;2023-05-07T09:46:03;5.30;;;4.10;;
57297;SDS011;43147;50.972;18.210;2023-05-07T09:48:43;4.60;;;3.80;;
57297;SDS011;43147;50.972;18.210;2023-05-07T09:53:49;6.70;;;4.00;;
57297;SDS011;43147;50.972;18.210;2023-05-07T09:56:15;4.60;;;3.60;;
57297;SDS011;43147;50.972;18.210;2023-05-07T09:58:41;6.60;;;4.30;;
57297;SDS011;43147;50.972;18.210;2023-05-07T10:01:10;5.60;;;3.50;;
57297;SDS011;43147;50.972;18.210;2023-05-07T10:03:36;4.40;;;3.80;;
57297;SDS011;43147;50.972;18.210;2023-05-07T10:06:02;5.70;;;3.80;;
57297;SDS011;43147;50.972;18.210;2023-05-07T10:08:29;5.50;;;3.50;;
57297;SDS011;43147;50.972;18.210;2023-05-07T10:10:56;5.40;;;4.20;;
57297;SDS011;43147;50.972;18.210;2023-05-07T10:13:21;5.60;;;4.10;;
57297;SDS011;43147;50.972;18.210;2023-05-07T10:15:49;3.90;;;3.50;;
57297;SDS011;43147;50.972;18.210;2023-05-07T10:18:15;5.70;;;5.20;;
57297;SDS011;43147;50.972;18.210;2023-05-07T10:20:41;3.70;;;3.40;;
57297;SDS011;43147;50.972;18.210;2023-05-07T10:23:08;8.30;;;4.70;;
57297;SDS011;43147;50.972;18.210;2023-05-07T10:25:35;5.10;;;4.60;;
57297;SDS011;43147;50.972;18.210;2023-05-07T10:28:04;4.00;;;3.60;;
57297;SDS011;43147;50.972;18.210;2023-05-07T10:33:33;5.70;;;4.60;;
57297;SDS011;43147;50.972;18.210;2023-05-07T10:36:00;19.80;;;11.10;;
57297;SDS011;43147;50.972;18.210;2023-05-07T10:38:28;19.50;;;12.00;;
57297;SDS011;43147;50.972;18.210;2023-05-07T10:40:53;11.60;;;8.00;;
57297;SDS011;43147;50.972;18.210;2023-05-07T10:43:19;10.00;;;6.70;;
57297;SDS011;43147;50.972;18.210;2023-05-07T10:49:16;8.70;;;4.10;;
57297;SDS011;43147;50.972;18.210;2023-05-07T10:51:37;8.10;;;6.10;;
57297;SDS011;43147;50.972;18.210;2023-05-07T10:56:35;10.80;;;7.30;;
57297;SDS011;43147;50.972;18.210;2023-05-07T11:04:22;10.20;;;6.30;;
57297;SDS011;43147;50.972;18.210;2023-05-07T11:07:09;15.20;;;9.50;;
57297;SDS011;43147;50.972;18.210;2023-05-07T11:10:11;16.10;;;10.50;;
57297;SDS011;43147;50.972;18.210;2023-05-07T11:15:02;15.60;;;9.40;;
57297;SDS011;43147;50.972;18.210;2023-05-07T11:17:29;16.70;;;11.20;;
57297;SDS011;43147;50.972;18.210;2023-05-07T11:19:57;13.30;;;8.00;;
57297;SDS011;43147;50.972;18.210;2023-05-07T11:25:07;12.50;;;7.50;;
57297;SDS011;43147;50.972;18.210;2023-05-07T11:27:36;19.60;;;8.90;;
57297;SDS011;43147;50.972;18.210;2023-05-07T11:30:02;11.60;;;8.00;;
57297;SDS011;43147;50.972;18.210;2023-05-07T11:32:29;14.50;;;9.50;;
57297;SDS011;43147;50.972;18.210;2023-05-07T11:34:57;23.90;;;12.80;;
57297;SDS011;43147;50.972;18.210;2023-05-07T11:37:25;14.10;;;10.00;;
57297;SDS011;43147;50.972;18.210;2023-05-07T11:42:31;11.00;;;8.60;;
57297;SDS011;43147;50.972;18.210;2023-05-07T11:44:59;14.50;;;12.50;;
57297;SDS011;43147;50.972;18.210;2023-05-07T11:47:24;8.90;;;8.00;;
57297;SDS011;43147;50.972;18.210;2023-05-07T11:49:53;11.80;;;7.40;;
57297;SDS011;43147;50.972;18.210;2023-05-07T11:52:20;15.90;;;9.10;;
57297;SDS011;43147;50.972;18.210;2023-05-07T11:54:55;8.50;;;7.70;;
57297;SDS011;43147;50.972;18.210;2023-05-07T11:57:22;15.30;;;10.70;;
57297;SDS011;43147;50.972;18.210;2023-05-07T11:59:52;25.90;;;13.10;;
57297;SDS011;43147;50.972;18.210;2023-05-07T12:02:21;28.50;;;16.80;;
57297;SDS011;43147;50.972;18.210;2023-05-07T12:04:49;13.00;;;8.50;;
57297;SDS011;43147;50.972;18.210;2023-05-07T12:07:14;30.80;;;13.00;;
57297;SDS011;43147;50.972;18.210;2023-05-07T12:09:41;18.40;;;10.90;;
57297;SDS011;43147;50.972;18.210;2023-05-07T12:12:07;14.30;;;9.80;;
57297;SDS011;43147;50.972;18.210;2023-05-07T12:14:32;10.00;;;8.50;;
57297;SDS011;43147;50.972;18.210;2023-05-07T12:17:01;15.50;;;11.20;;
57297;SDS011;43147;50.972;18.210;2023-05-07T12:19:29;11.70;;;9.00;;
57297;SDS011;43147;50.972;18.210;2023-05-07T12:21:56;16.70;;;10.60;;
57297;SDS011;43147;50.972;18.210;2023-05-07T12:24:21;20.30;;;12.10;;
57297;SDS011;43147;50.972;18.210;2023-05-07T12:26:48;17.00;;;10.00;;
57297;SDS011;43147;50.972;18.210;2023-05-07T12:29:14;12.30;;;8.40;;
57297;SDS011;43147;50.972;18.210;2023-05-07T12:31:41;8.50;;;7.40;;
57297;SDS011;43147;50.972;18.210;2023-05-07T12:34:07;18.00;;;11.90;;
57297;SDS011;43147;50.972;18.210;2023-05-07T12:36:36;12.30;;;9.30;;
57297;SDS011;43147;50.972;18.210;2023-05-07T12:39:04;11.60;;;8.90;;
57297;SDS011;43147;50.972;18.210;2023-05-07T12:41:34;22.90;;;13.60;;
57297;SDS011;43147;50.972;18.210;2023-05-07T12:44:03;12.30;;;8.90;;
57297;SDS011;43147;50.972;18.210;2023-05-07T12:46:30;12.90;;;9.30;;
57297;SDS011;43147;50.972;18.210;2023-05-07T12:48:56;26.00;;;14.70;;
57297;SDS011;43147;50.972;18.210;2023-05-07T12:51:21;17.30;;;10.90;;
57297;SDS011;43147;50.972;18.210;2023-05-07T12:53:47;22.60;;;13.10;;
57297;SDS011;43147;50.972;18.210;2023-05-07T12:56:15;13.30;;;9.40;;
57297;SDS011;43147;50.972;18.210;2023-05-07T12:58:41;14.50;;;10.40;;
57297;SDS011;43147;50.972;18.210;2023-05-07T13:01:07;9.50;;;7.00;;
57297;SDS011;43147;50.972;18.210;2023-05-07T13:03:35;11.50;;;8.50;;
57297;SDS011;43147;50.972;18.210;2023-05-07T13:06:03;9.00;;;7.50;;
57297;SDS011;43147;50.972;18.210;2023-05-07T13:08:31;13.30;;;9.10;;
57297;SDS011;43147;50.972;18.210;2023-05-07T13:11:06;11.30;;;7.70;;
57297;SDS011;43147;50.972;18.210;2023-05-07T13:13:33;10.70;;;7.70;;
57297;SDS011;43147;50.972;18.210;2023-05-07T13:16:03;10.00;;;7.80;;
57297;SDS011;43147;50.972;18.210;2023-05-07T13:18:30;9.40;;;7.30;;
57297;SDS011;43147;50.972;18.210;2023-05-07T13:20:56;7.40;;;6.00;;
57297;SDS011;43147;50.972;18.210;2023-05-07T13:23:22;7.50;;;6.60;;
57297;SDS011;43147;50.972;18.210;2023-05-07T13:25:49;9.30;;;7.90;;
57297;SDS011;43147;50.972;18.210;2023-05-07T13:28:15;10.40;;;7.70;;
57297;SDS011;43147;50.972;18.210;2023-05-07T13:30:41;9.50;;;8.50;;
57297;SDS011;43147;50.972;18.210;2023-05-07T13:33:07;12.60;;;8.30;;
57297;SDS011;43147;50.972;18.210;2023-05-07T13:35:32;9.00;;;7.60;;
57297;SDS011;43147;50.972;18.210;2023-05-07T13:37:58;12.00;;;9.60;;
57297;SDS011;43147;50.972;18.210;2023-05-07T13:40:24;20.10;;;13.00;;
57297;SDS011;43147;50.972;18.210;2023-05-07T13:42:50;15.00;;;9.60;;
57297;SDS011;43147;50.972;18.210;2023-05-07T13:45:17;12.30;;;10.70;;
57297;SDS011;43147;50.972;18.210;2023-05-07T13:47:43;9.70;;;8.80;;
57297;SDS011;43147;50.972;18.210;2023-05-07T13:50:10;8.80;;;7.90;;
57297;SDS011;43147;50.972;18.210;2023-05-07T13:52:42;12.90;;;10.60;;
57297;SDS011;43147;50.972;18.210;2023-05-07T13:55:09;15.00;;;10.90;;
57297;SDS011;43147;50.972;18.210;2023-05-07T13:57:36;17.30;;;14.30;;
57297;SDS011;43147;50.972;18.210;2023-05-07T14:00:03;13.00;;;9.20;;
57297;SDS011;43147;50.972;18.210;2023-05-07T14:02:30;18.00;;;12.70;;
57297;SDS011;43147;50.972;18.210;2023-05-07T14:04:56;9.40;;;8.20;;
57297;SDS011;43147;50.972;18.210;2023-05-07T14:07:22;9.90;;;8.80;;
57297;SDS011;43147;50.972;18.210;2023-05-07T14:09:48;13.70;;;7.60;;
57297;SDS011;43147;50.972;18.210;2023-05-07T14:12:14;18.10;;;11.40;;
57297;SDS011;43147;50.972;18.210;2023-05-07T14:14:39;16.60;;;12.60;;
57297;SDS011;43147;50.972;18.210;2023-05-07T14:17:05;21.80;;;11.20;;
57297;SDS011;43147;50.972;18.210;2023-05-07T14:19:30;46.30;;;21.60;;
57297;SDS011;43147;50.972;18.210;2023-05-07T14:21:56;13.40;;;8.60;;
57297;SDS011;43147;50.972;18.210;2023-05-07T14:24:22;19.30;;;11.30;;
57297;SDS011;43147;50.972;18.210;2023-05-07T14:26:49;16.10;;;10.90;;
57297;SDS011;43147;50.972;18.210;2023-05-07T14:29:14;21.50;;;13.40;;
57297;SDS011;43147;50.972;18.210;2023-05-07T14:31:44;19.60;;;12.20;;
57297;SDS011;43147;50.972;18.210;2023-05-07T14:34:10;10.00;;;8.10;;
57297;SDS011;43147;50.972;18.210;2023-05-07T14:36:36;15.60;;;9.40;;
57297;SDS011;43147;50.972;18.210;2023-05-07T14:39:03;18.70;;;11.30;;
57297;SDS011;43147;50.972;18.210;2023-05-07T14:41:29;13.10;;;8.20;;
57297;SDS011;43147;50.972;18.210;2023-05-07T14:43:56;14.90;;;9.60;;
57297;SDS011;43147;50.972;18.210;2023-05-07T14:46:21;15.20;;;10.40;;
57297;SDS011;43147;50.972;18.210;2023-05-07T14:48:47;19.00;;;12.20;;
57297;SDS011;43147;50.972;18.210;2023-05-07T14:51:15;14.80;;;10.40;;